sensor_id;sensor_type;location;lat;lon;timestamp;P1;durP1;ratioP1;P2;durP2;ratioP2
21517;SDS011;61765;45.794;24.150;2024-01-16T00:06:10;3.05;;;2.20;;
21517;SDS011;61765;45.794;24.150;2024-01-16T00:14:18;3.42;;;2.50;;
21517;SDS011;61765;45.794;24.150;2024-01-16T00:22:24;4.35;;;2.35;;
21517;SDS011;61765;45.794;24.150;2024-01-16T00:30:32;5.68;;;2.45;;
21517;SDS011;61765;45.794;24.150;2024-01-16T00:38:38;5.55;;;2.38;;
21517;SDS011;61765;45.794;24.150;2024-01-16T00:46:46;3.40;;;2.50;;
21517;SDS011;61765;45.794;24.150;2024-01-16T00:54:52;2.60;;;1.90;;
21517;SDS011;61765;45.794;24.150;2024-01-16T01:03:00;3.08;;;2.40;;
21517;SDS011;61765;45.794;24.150;2024-01-16T01:11:06;3.85;;;2.17;;
21517;SDS011;61765;45.794;24.150;2024-01-16T01:19:14;2.65;;;1.95;;
21517;SDS011;61765;45.794;24.150;2024-01-16T01:27:20;4.25;;;2.40;;
21517;SDS011;61765;45.794;24.150;2024-01-16T01:35:28;4.57;;;3.05;;
21517;SDS011;61765;45.794;24.150;2024-01-16T01:43:34;6.75;;;4.32;;
21517;SDS011;61765;45.794;24.150;2024-01-16T01:51:43;6.68;;;3.90;;
21517;SDS011;61765;45.794;24.150;2024-01-16T01:59:49;9.88;;;6.25;;
21517;SDS011;61765;45.794;24.150;2024-01-16T02:08:00;9.02;;;5.20;;
21517;SDS011;61765;45.794;24.150;2024-01-16T02:16:06;12.80;;;6.50;;
21517;SDS011;61765;45.794;24.150;2024-01-16T02:24:25;8.20;;;5.32;;
21517;SDS011;61765;45.794;24.150;2024-01-16T02:32:31;6.90;;;4.55;;
21517;SDS011;61765;45.794;24.150;2024-01-16T02:40:42;10.90;;;4.20;;
21517;SDS011;61765;45.794;24.150;2024-01-16T02:48:48;5.82;;;3.72;;
21517;SDS011;61765;45.794;24.150;2024-01-16T02:56:56;5.55;;;3.35;;
21517;SDS011;61765;45.794;24.150;2024-01-16T03:05:02;4.60;;;2.50;;
21517;SDS011;61765;45.794;24.150;2024-01-16T03:13:11;2.05;;;1.27;;
21517;SDS011;61765;45.794;24.150;2024-01-16T03:21:17;2.92;;;1.50;;
21517;SDS011;61765;45.794;24.150;2024-01-16T03:29:25;0.80;;;0.80;;
21517;SDS011;61765;45.794;24.150;2024-01-16T03:37:31;1.77;;;1.17;;
21517;SDS011;61765;45.794;24.150;2024-01-16T03:45:39;1.80;;;1.30;;
21517;SDS011;61765;45.794;24.150;2024-01-16T03:53:45;1.27;;;1.00;;
21517;SDS011;61765;45.794;24.150;2024-01-16T04:10:14;2.22;;;1.17;;
21517;SDS011;61765;45.794;24.150;2024-01-16T04:18:22;1.42;;;1.08;;
21517;SDS011;61765;45.794;24.150;2024-01-16T04:26:28;3.05;;;1.85;;
21517;SDS011;61765;45.794;24.150;2024-01-16T04:34:36;5.97;;;3.42;;
21517;SDS011;61765;45.794;24.150;2024-01-16T04:42:42;6.80;;;4.03;;
21517;SDS011;61765;45.794;24.150;2024-01-16T04:50:50;5.50;;;3.38;;
21517;SDS011;61765;45.794;24.150;2024-01-16T04:58:56;4.82;;;2.90;;
21517;SDS011;61765;45.794;24.150;2024-01-16T05:07:05;4.20;;;2.75;;
21517;SDS011;61765;45.794;24.150;2024-01-16T05:15:10;3.50;;;2.40;;
21517;SDS011;61765;45.794;24.150;2024-01-16T05:23:19;5.10;;;3.00;;
21517;SDS011;61765;45.794;24.150;2024-01-16T05:31:27;6.50;;;3.55;;
21517;SDS011;61765;45.794;24.150;2024-01-16T05:39:36;6.60;;;3.72;;
21517;SDS011;61765;45.794;24.150;2024-01-16T05:47:41;8.60;;;5.22;;
21517;SDS011;61765;45.794;24.150;2024-01-16T05:55:50;9.00;;;4.90;;
21517;SDS011;61765;45.794;24.150;2024-01-16T06:03:56;5.85;;;2.30;;
21517;SDS011;61765;45.794;24.150;2024-01-16T06:12:07;3.30;;;2.03;;
21517;SDS011;61765;45.794;24.150;2024-01-16T06:20:14;5.25;;;2.55;;
21517;SDS011;61765;45.794;24.150;2024-01-16T06:28:22;4.82;;;2.95;;
21517;SDS011;61765;45.794;24.150;2024-01-16T06:36:28;5.60;;;2.80;;
21517;SDS011;61765;45.794;24.150;2024-01-16T06:44:36;4.78;;;3.03;;
21517;SDS011;61765;45.794;24.150;2024-01-16T06:52:42;6.60;;;3.72;;
21517;SDS011;61765;45.794;24.150;2024-01-16T07:00:50;7.50;;;3.40;;
21517;SDS011;61765;45.794;24.150;2024-01-16T07:08:56;7.45;;;3.63;;
21517;SDS011;61765;45.794;24.150;2024-01-16T07:17:04;8.82;;;4.18;;
21517;SDS011;61765;45.794;24.150;2024-01-16T07:25:10;6.30;;;3.35;;
21517;SDS011;61765;45.794;24.150;2024-01-16T07:33:18;4.57;;;3.33;;
21517;SDS011;61765;45.794;24.150;2024-01-16T07:41:24;5.32;;;3.55;;
21517;SDS011;61765;45.794;24.150;2024-01-16T07:49:32;10.40;;;4.88;;
21517;SDS011;61765;45.794;24.150;2024-01-16T07:57:38;6.57;;;3.42;;
21517;SDS011;61765;45.794;24.150;2024-01-16T08:05:46;10.82;;;2.83;;
21517;SDS011;61765;45.794;24.150;2024-01-16T08:13:52;5.10;;;3.00;;
21517;SDS011;61765;45.794;24.150;2024-01-16T08:22:00;7.95;;;3.03;;
21517;SDS011;61765;45.794;24.150;2024-01-16T08:30:10;12.05;;;4.35;;
21517;SDS011;61765;45.794;24.150;2024-01-16T08:38:18;14.82;;;5.32;;
21517;SDS011;61765;45.794;24.150;2024-01-16T08:46:24;7.57;;;3.63;;
21517;SDS011;61765;45.794;24.150;2024-01-16T08:54:34;9.27;;;3.90;;
21517;SDS011;61765;45.794;24.150;2024-01-16T09:02:39;8.32;;;3.85;;
21517;SDS011;61765;45.794;24.150;2024-01-16T09:10:48;10.63;;;4.55;;
21517;SDS011;61765;45.794;24.150;2024-01-16T09:18:54;12.73;;;4.55;;
21517;SDS011;61765;45.794;24.150;2024-01-16T09:27:02;33.35;;;7.30;;
21517;SDS011;61765;45.794;24.150;2024-01-16T09:35:11;40.65;;;9.13;;
21517;SDS011;61765;45.794;24.150;2024-01-16T09:43:20;63.53;;;10.52;;
21517;SDS011;61765;45.794;24.150;2024-01-16T09:51:26;16.63;;;4.70;;
21517;SDS011;61765;45.794;24.150;2024-01-16T09:59:35;22.67;;;7.75;;
21517;SDS011;61765;45.794;24.150;2024-01-16T10:07:43;6.13;;;3.45;;
21517;SDS011;61765;45.794;24.150;2024-01-16T10:15:52;10.27;;;3.83;;
21517;SDS011;61765;45.794;24.150;2024-01-16T10:24:00;14.65;;;5.25;;
21517;SDS011;61765;45.794;24.150;2024-01-16T10:32:44;26.13;;;7.10;;
21517;SDS011;61765;45.794;24.150;2024-01-16T10:41:06;14.23;;;4.53;;
21517;SDS011;61765;45.794;24.150;2024-01-16T10:49:18;17.33;;;5.85;;
21517;SDS011;61765;45.794;24.150;2024-01-16T10:57:24;65.97;;;15.20;;
21517;SDS011;61765;45.794;24.150;2024-01-16T11:05:33;13.50;;;4.88;;
21517;SDS011;61765;45.794;24.150;2024-01-16T11:13:41;9.13;;;4.00;;
21517;SDS011;61765;45.794;24.150;2024-01-16T11:21:51;14.18;;;4.00;;
21517;SDS011;61765;45.794;24.150;2024-01-16T11:29:57;10.90;;;4.05;;
21517;SDS011;61765;45.794;24.150;2024-01-16T11:38:06;6.95;;;2.75;;
21517;SDS011;61765;45.794;24.150;2024-01-16T11:46:18;4.95;;;2.08;;
21517;SDS011;61765;45.794;24.150;2024-01-16T11:54:27;4.55;;;2.28;;
21517;SDS011;61765;45.794;24.150;2024-01-16T12:02:37;6.15;;;2.28;;
21517;SDS011;61765;45.794;24.150;2024-01-16T12:11:12;3.75;;;2.38;;
21517;SDS011;61765;45.794;24.150;2024-01-16T12:19:46;5.30;;;2.97;;
21517;SDS011;61765;45.794;24.150;2024-01-16T12:27:59;6.38;;;2.90;;
21517;SDS011;61765;45.794;24.150;2024-01-16T12:36:05;6.15;;;3.22;;
21517;SDS011;61765;45.794;24.150;2024-01-16T12:44:15;8.45;;;3.88;;
21517;SDS011;61765;45.794;24.150;2024-01-16T12:52:21;5.28;;;3.03;;
21517;SDS011;61765;45.794;24.150;2024-01-16T13:00:30;5.55;;;3.38;;
21517;SDS011;61765;45.794;24.150;2024-01-16T13:08:35;10.13;;;5.35;;
21517;SDS011;61765;45.794;24.150;2024-01-16T13:16:44;6.15;;;3.03;;
21517;SDS011;61765;45.794;24.150;2024-01-16T13:24:50;6.13;;;3.20;;
21517;SDS011;61765;45.794;24.150;2024-01-16T13:33:11;5.65;;;3.25;;
21517;SDS011;61765;45.794;24.150;2024-01-16T13:41:18;7.50;;;3.45;;
21517;SDS011;61765;45.794;24.150;2024-01-16T13:49:26;5.93;;;3.47;;
21517;SDS011;61765;45.794;24.150;2024-01-16T13:57:32;7.82;;;4.05;;
21517;SDS011;61765;45.794;24.150;2024-01-16T14:05:42;8.02;;;3.95;;
21517;SDS011;61765;45.794;24.150;2024-01-16T14:13:47;7.32;;;4.03;;
21517;SDS011;61765;45.794;24.150;2024-01-16T14:22:00;8.80;;;3.97;;
21517;SDS011;61765;45.794;24.150;2024-01-16T14:30:06;8.02;;;3.05;;
21517;SDS011;61765;45.794;24.150;2024-01-16T14:38:17;7.80;;;2.78;;
21517;SDS011;61765;45.794;24.150;2024-01-16T14:46:22;4.35;;;2.47;;
21517;SDS011;61765;45.794;24.150;2024-01-16T14:54:31;3.42;;;2.50;;
21517;SDS011;61765;45.794;24.150;2024-01-16T15:02:37;5.18;;;3.05;;
21517;SDS011;61765;45.794;24.150;2024-01-16T15:10:45;9.98;;;3.50;;
21517;SDS011;61765;45.794;24.150;2024-01-16T15:18:51;8.43;;;3.80;;
21517;SDS011;61765;45.794;24.150;2024-01-16T15:27:00;9.25;;;3.85;;
21517;SDS011;61765;45.794;24.150;2024-01-16T15:35:06;23.75;;;5.50;;
21517;SDS011;61765;45.794;24.150;2024-01-16T15:43:15;11.90;;;6.20;;
21517;SDS011;61765;45.794;24.150;2024-01-16T15:51:21;11.05;;;6.32;;
21517;SDS011;61765;45.794;24.150;2024-01-16T15:59:30;14.23;;;7.50;;
21517;SDS011;61765;45.794;24.150;2024-01-16T16:07:36;12.48;;;7.35;;
21517;SDS011;61765;45.794;24.150;2024-01-16T16:15:44;15.27;;;8.38;;
21517;SDS011;61765;45.794;24.150;2024-01-16T16:23:50;18.45;;;9.57;;
21517;SDS011;61765;45.794;24.150;2024-01-16T16:31:59;16.17;;;9.25;;
21517;SDS011;61765;45.794;24.150;2024-01-16T16:40:05;32.75;;;14.85;;
21517;SDS011;61765;45.794;24.150;2024-01-16T16:48:16;62.63;;;24.50;;
21517;SDS011;61765;45.794;24.150;2024-01-16T16:56:22;61.00;;;23.20;;
21517;SDS011;61765;45.794;24.150;2024-01-16T17:04:31;27.27;;;12.30;;
21517;SDS011;61765;45.794;24.150;2024-01-16T17:12:37;24.20;;;11.60;;
21517;SDS011;61765;45.794;24.150;2024-01-16T17:20:45;61.65;;;21.38;;
21517;SDS011;61765;45.794;24.150;2024-01-16T17:28:53;31.52;;;13.80;;
21517;SDS011;61765;45.794;24.150;2024-01-16T17:37:02;25.05;;;11.60;;
21517;SDS011;61765;45.794;24.150;2024-01-16T17:45:09;30.65;;;13.88;;
21517;SDS011;61765;45.794;24.150;2024-01-16T17:53:17;19.63;;;10.75;;
21517;SDS011;61765;45.794;24.150;2024-01-16T18:01:23;15.70;;;9.27;;
21517;SDS011;61765;45.794;24.150;2024-01-16T18:09:31;20.80;;;9.80;;
21517;SDS011;61765;45.794;24.150;2024-01-16T18:17:37;28.17;;;13.45;;
21517;SDS011;61765;45.794;24.150;2024-01-16T18:25:46;26.10;;;14.70;;
21517;SDS011;61765;45.794;24.150;2024-01-16T18:33:52;34.33;;;15.95;;
21517;SDS011;61765;45.794;24.150;2024-01-16T18:42:09;40.78;;;20.67;;
21517;SDS011;61765;45.794;24.150;2024-01-16T18:50:15;28.17;;;16.45;;
21517;SDS011;61765;45.794;24.150;2024-01-16T18:58:24;23.15;;;12.32;;
21517;SDS011;61765;45.794;24.150;2024-01-16T19:06:29;24.63;;;13.45;;
21517;SDS011;61765;45.794;24.150;2024-01-16T19:14:37;31.35;;;15.13;;
21517;SDS011;61765;45.794;24.150;2024-01-16T19:22:49;51.00;;;23.55;;
21517;SDS011;61765;45.794;24.150;2024-01-16T19:31:00;46.40;;;23.08;;
21517;SDS011;61765;45.794;24.150;2024-01-16T19:39:07;48.28;;;23.10;;
21517;SDS011;61765;45.794;24.150;2024-01-16T19:47:19;35.58;;;19.08;;
21517;SDS011;61765;45.794;24.150;2024-01-16T19:55:25;42.15;;;20.25;;
21517;SDS011;61765;45.794;24.150;2024-01-16T20:03:33;38.15;;;20.02;;
21517;SDS011;61765;45.794;24.150;2024-01-16T20:11:43;40.60;;;18.50;;
21517;SDS011;61765;45.794;24.150;2024-01-16T20:19:51;37.20;;;17.45;;
21517;SDS011;61765;45.794;24.150;2024-01-16T20:27:56;35.05;;;17.10;;
21517;SDS011;61765;45.794;24.150;2024-01-16T20:36:08;29.88;;;16.10;;
21517;SDS011;61765;45.794;24.150;2024-01-16T20:44:14;32.58;;;16.88;;
21517;SDS011;61765;45.794;24.150;2024-01-16T20:52:25;35.60;;;17.50;;
21517;SDS011;61765;45.794;24.150;2024-01-16T21:00:30;36.47;;;17.08;;
21517;SDS011;61765;45.794;24.150;2024-01-16T21:08:39;32.72;;;16.45;;
21517;SDS011;61765;45.794;24.150;2024-01-16T21:16:45;49.40;;;22.75;;
21517;SDS011;61765;45.794;24.150;2024-01-16T21:24:53;47.28;;;19.85;;
21517;SDS011;61765;45.794;24.150;2024-01-16T21:32:59;41.28;;;18.50;;
21517;SDS011;61765;45.794;24.150;2024-01-16T21:41:07;38.67;;;18.85;;
21517;SDS011;61765;45.794;24.150;2024-01-16T21:49:14;34.38;;;17.33;;
21517;SDS011;61765;45.794;24.150;2024-01-16T21:57:22;60.92;;;28.90;;
21517;SDS011;61765;45.794;24.150;2024-01-16T22:05:31;71.80;;;32.72;;
21517;SDS011;61765;45.794;24.150;2024-01-16T22:13:40;74.47;;;33.13;;
21517;SDS011;61765;45.794;24.150;2024-01-16T22:21:46;48.22;;;22.70;;
21517;SDS011;61765;45.794;24.150;2024-01-16T22:29:54;40.97;;;18.67;;
21517;SDS011;61765;45.794;24.150;2024-01-16T22:38:00;38.22;;;19.52;;
21517;SDS011;61765;45.794;24.150;2024-01-16T22:46:08;32.92;;;16.85;;
21517;SDS011;61765;45.794;24.150;2024-01-16T22:54:14;35.58;;;18.20;;
21517;SDS011;61765;45.794;24.150;2024-01-16T23:02:22;32.55;;;16.17;;
21517;SDS011;61765;45.794;24.150;2024-01-16T23:10:28;30.95;;;15.15;;
21517;SDS011;61765;45.794;24.150;2024-01-16T23:18:36;31.70;;;15.45;;
21517;SDS011;61765;45.794;24.150;2024-01-16T23:26:42;29.27;;;15.32;;
21517;SDS011;61765;45.794;24.150;2024-01-16T23:34:51;34.10;;;16.13;;
21517;SDS011;61765;45.794;24.150;2024-01-16T23:42:56;31.13;;;15.20;;
21517;SDS011;61765;45.794;24.150;2024-01-16T23:51:05;29.75;;;14.88;;
21517;SDS011;61765;45.794;24.150;2024-01-16T23:59:10;34.22;;;15.70;;
